Time;durP1;ratioP1;P1;durP2;ratioP2;P2;SDS_P1;SDS_P2;PMS_P1;PMS_P2;Temp;Humidity;BMP_temperature;BMP_pressure;BME280_temperature;BME280_humidity;BME280_pressure;Samples;Min_cycle;Max_cycle;Signal;HPM_P1;HPM_P2
2023/10/05 00:01:10;;;;;;;5.95;2.47;;;13.20;99.90;;;;;;5063790;28;20072;-87
2023/10/05 00:03:38;;;;;;;7.30;2.17;;;13.20;99.90;;;;;;5053399;28;20041;-86
2023/10/05 00:06:16;;;;;;;7.47;2.65;;;13.10;99.90;;;;;;5072918;28;20044;-87
2023/10/05 00:08:49;;;;;;;8.88;2.70;;;13.20;99.90;;;;;;5052721;28;20048;-87
2023/10/05 00:11:23;;;;;;;10.35;2.70;;;13.20;99.90;;;;;;5048868;28;20126;-86
2023/10/05 00:13:59;;;;;;;8.75;3.65;;;13.10;99.90;;;;;;5065811;28;20040;-88
2023/10/05 00:16:37;;;;;;;4.22;2.38;;;13.10;99.90;;;;;;5033005;28;20090;-88
2023/10/05 00:19:08;;;;;;;6.30;2.85;;;13.10;99.90;;;;;;5054073;28;20093;-87
2023/10/05 00:21:35;;;;;;;8.00;2.75;;;13.10;99.90;;;;;;5051701;28;20048;-87
2023/10/05 00:24:02;;;;;;;5.60;2.22;;;13.10;99.90;;;;;;5037956;28;20064;-87
2023/10/05 00:26:32;;;;;;;5.80;2.28;;;13.10;99.90;;;;;;5032959;28;20044;-87
2023/10/05 00:29:15;;;;;;;8.95;2.97;;;13.10;99.90;;;;;;5036057;28;20043;-87
2023/10/05 00:31:41;;;;;;;7.88;2.50;;;13.10;99.90;;;;;;5033146;28;20044;-87
2023/10/05 00:34:09;;;;;;;5.40;2.67;;;13.10;99.90;;;;;;5033948;28;20037;-87
2023/10/05 00:36:39;;;;;;;8.68;2.78;;;13.10;99.90;;;;;;5035164;28;20052;-87
2023/10/05 00:39:08;;;;;;;8.55;2.60;;;13.10;99.90;;;;;;5036192;28;20033;-88
2023/10/05 00:41:34;;;;;;;6.50;2.95;;;13.10;99.90;;;;;;5032847;28;20044;-88
2023/10/05 00:44:00;;;;;;;6.15;2.13;;;13.10;99.90;;;;;;5035871;28;20041;-88
2023/10/05 00:46:25;;;;;;;5.22;2.50;;;13.10;99.90;;;;;;5033474;28;20426;-88
2023/10/05 00:49:03;;;;;;;6.38;2.50;;;13.00;99.90;;;;;;5049831;28;20047;-88
2023/10/05 00:51:31;;;;;;;6.78;2.88;;;13.10;99.90;;;;;;5030576;28;20045;-87
2023/10/05 00:54:10;;;;;;;4.70;2.75;;;13.10;99.90;;;;;;5035599;28;20556;-87
2023/10/05 00:56:41;;;;;;;8.40;2.97;;;13.10;99.90;;;;;;5054035;28;20422;-88
2023/10/05 00:59:10;;;;;;;7.90;2.65;;;13.10;99.90;;;;;;5068332;28;20040;-86
2023/10/05 01:04:34;;;;;;;5.88;2.63;;;13.10;99.90;;;;;;5052623;28;20044;-88
2023/10/05 01:07:21;;;;;;;8.23;2.95;;;13.10;99.90;;;;;;5034275;28;20040;-87
2023/10/05 01:14:50;;;;;;;7.47;2.30;;;13.10;99.90;;;;;;5050371;28;20044;-87
2023/10/05 01:17:21;;;;;;;10.05;2.95;;;13.10;99.90;;;;;;5035968;28;20036;-87
2023/10/05 01:19:59;;;;;;;7.85;2.60;;;13.10;99.90;;;;;;5048112;28;20086;-87
2023/10/05 01:22:33;;;;;;;9.57;2.95;;;13.10;99.90;;;;;;5034710;28;20070;-88
2023/10/05 01:25:02;;;;;;;7.32;2.88;;;13.10;99.90;;;;;;5052019;28;20478;-88
2023/10/05 01:27:29;;;;;;;7.53;2.55;;;13.20;99.90;;;;;;5034945;28;20037;-87
2023/10/05 01:29:56;;;;;;;9.38;2.58;;;13.20;99.90;;;;;;5049474;28;20088;-87
2023/10/05 01:32:22;;;;;;;7.78;2.78;;;13.20;99.90;;;;;;5032363;28;20029;-87
2023/10/05 01:34:51;;;;;;;8.27;3.33;;;13.20;99.90;;;;;;5052459;28;20032;-87
2023/10/05 01:37:18;;;;;;;4.25;2.50;;;13.10;99.90;;;;;;5035286;28;20042;-88
2023/10/05 01:39:44;;;;;;;8.75;2.92;;;13.20;99.90;;;;;;5032891;28;20044;-86
2023/10/05 01:42:14;;;;;;;7.90;3.10;;;13.20;99.90;;;;;;5033591;28;20127;-87
2023/10/05 01:44:47;;;;;;;5.35;2.75;;;13.20;99.90;;;;;;5050577;28;20506;-87
2023/10/05 01:47:17;;;;;;;7.55;2.90;;;13.20;99.90;;;;;;5033361;28;20082;-87
2023/10/05 01:49:44;;;;;;;6.97;2.90;;;13.30;99.90;;;;;;5047016;28;20041;-86
2023/10/05 01:52:10;;;;;;;8.45;2.50;;;13.30;99.90;;;;;;5036291;28;20032;-86
2023/10/05 01:54:36;;;;;;;9.00;2.50;;;13.30;99.90;;;;;;5028227;28;20171;-88
2023/10/05 01:57:07;;;;;;;7.90;3.05;;;13.30;99.90;;;;;;5033619;28;20071;-88
2023/10/05 01:59:34;;;;;;;9.63;3.42;;;13.30;99.90;;;;;;5046871;28;20056;-86
2023/10/05 02:02:15;;;;;;;8.48;2.95;;;13.20;99.90;;;;;;5048604;28;20123;-87
2023/10/05 02:04:43;;;;;;;6.35;2.42;;;13.20;99.90;;;;;;5033030;28;20510;-89
2023/10/05 02:07:11;;;;;;;6.47;2.22;;;13.10;99.90;;;;;;5028115;28;20037;-88
2023/10/05 02:09:38;;;;;;;6.72;2.50;;;13.20;99.90;;;;;;5033038;28;20399;-88
2023/10/05 02:12:06;;;;;;;9.23;2.95;;;13.20;99.90;;;;;;5035284;28;20032;-87
2023/10/05 02:14:36;;;;;;;7.32;2.70;;;13.20;99.90;;;;;;5049652;28;20051;-87
2023/10/05 02:17:04;;;;;;;6.70;2.60;;;13.20;99.90;;;;;;5032772;28;20456;-88
2023/10/05 02:19:30;;;;;;;6.93;2.63;;;13.20;99.90;;;;;;5032446;28;20094;-87
2023/10/05 02:21:58;;;;;;;8.45;2.83;;;13.20;99.90;;;;;;5049373;28;20041;-87
2023/10/05 02:24:25;;;;;;;6.63;2.90;;;13.20;99.90;;;;;;5032285;28;20466;-87
2023/10/05 02:29:21;;;;;;;6.05;2.78;;;13.10;99.90;;;;;;5049659;28;20506;-88
2023/10/05 02:34:22;;;;;;;5.13;3.00;;;13.10;99.90;;;;;;5050495;28;20402;-86
2023/10/05 02:36:47;;;;;;;7.15;3.45;;;13.10;99.90;;;;;;5033493;28;20041;-88
2023/10/05 02:39:14;;;;;;;4.97;2.95;;;13.10;99.90;;;;;;5034190;28;20032;-88
2023/10/05 02:41:40;;;;;;;7.60;2.90;;;13.10;99.90;;;;;;5025790;28;20094;-88
2023/10/05 02:46:48;;;;;;;8.63;3.38;;;13.10;99.90;;;;;;5051747;28;20136;-87
2023/10/05 02:49:18;;;;;;;9.18;2.83;;;13.00;99.90;;;;;;5035056;28;20082;-87
2023/10/05 02:51:44;;;;;;;5.70;3.13;;;13.00;99.90;;;;;;5030598;28;20063;-87
2023/10/05 02:54:10;;;;;;;6.50;3.15;;;13.00;99.90;;;;;;5034148;28;20517;-88
2023/10/05 02:56:40;;;;;;;6.70;3.17;;;12.90;99.90;;;;;;5048576;28;20055;-87
2023/10/05 02:59:14;;;;;;;7.88;2.70;;;12.90;99.90;;;;;;5048429;28;20163;-88
2023/10/05 03:01:41;;;;;;;7.53;2.95;;;12.90;99.90;;;;;;5030168;28;20044;-88
2023/10/05 03:06:39;;;;;;;10.88;3.40;;;12.90;99.90;;;;;;5049762;28;20045;-88
2023/10/05 03:09:08;;;;;;;9.10;3.83;;;12.90;99.90;;;;;;5034279;28;20486;-87
2023/10/05 03:11:38;;;;;;;8.68;3.30;;;12.90;99.90;;;;;;5034029;28;20036;-87
2023/10/05 03:14:05;;;;;;;9.25;3.55;;;12.90;99.90;;;;;;5033120;28;20495;-86
2023/10/05 03:16:42;;;;;;;9.93;3.50;;;12.90;99.90;;;;;;5050705;28;20105;-88
2023/10/05 03:19:08;;;;;;;7.32;3.00;;;12.90;99.90;;;;;;5031010;28;20055;-88
2023/10/05 03:21:34;;;;;;;10.10;2.92;;;12.90;99.90;;;;;;5048298;28;20491;-88
2023/10/05 03:23:59;;;;;;;5.93;2.63;;;12.90;99.90;;;;;;5031639;28;20135;-87
2023/10/05 03:26:25;;;;;;;7.95;3.70;;;12.90;99.90;;;;;;5034160;28;20390;-87
2023/10/05 03:28:51;;;;;;;4.72;3.00;;;12.90;99.90;;;;;;5051230;28;20045;-87
2023/10/05 03:31:32;;;;;;;8.90;3.40;;;13.00;99.90;;;;;;5051350;28;20039;-87
2023/10/05 03:33:58;;;;;;;6.18;3.15;;;13.00;99.90;;;;;;5049198;28;20041;-89
2023/10/05 03:36:23;;;;;;;7.40;3.38;;;13.00;99.90;;;;;;5037848;28;20035;-87
2023/10/05 03:38:58;;;;;;;9.18;3.65;;;13.10;99.90;;;;;;5053522;28;20397;-87
2023/10/05 03:41:26;;;;;;;8.43;3.33;;;13.10;99.90;;;;;;5035363;28;20060;-88
2023/10/05 03:43:55;;;;;;;8.75;3.33;;;13.10;99.90;;;;;;5032559;28;20033;-88
2023/10/05 03:46:24;;;;;;;8.60;3.60;;;13.10;99.90;;;;;;5031882;28;20071;-87
2023/10/05 03:48:59;;;;;;;7.75;3.20;;;13.10;99.90;;;;;;5050816;28;20048;-88
2023/10/05 03:51:26;;;;;;;10.40;3.10;;;13.10;99.90;;;;;;5035678;28;20116;-87
2023/10/05 03:53:51;;;;;;;10.65;3.00;;;13.10;99.90;;;;;;5051823;28;20131;-88
2023/10/05 03:56:21;;;;;;;7.32;3.10;;;13.10;99.90;;;;;;5051670;28;20119;-87
2023/10/05 03:58:48;;;;;;;12.13;3.08;;;13.10;99.90;;;;;;5053072;28;20124;-88
2023/10/05 04:01:14;;;;;;;10.40;3.45;;;13.00;99.90;;;;;;5036885;28;20131;-86
2023/10/05 04:03:40;;;;;;;8.00;3.13;;;13.10;99.90;;;;;;5037084;28;20478;-88
2023/10/05 04:06:18;;;;;;;6.03;3.22;;;13.10;99.90;;;;;;5056363;28;20037;-87
2023/10/05 04:08:49;;;;;;;6.05;3.60;;;13.00;99.90;;;;;;5034049;28;20402;-87
2023/10/05 04:11:17;;;;;;;13.35;3.75;;;13.10;99.90;;;;;;5037175;28;20024;-89
2023/10/05 04:13:43;;;;;;;11.98;3.50;;;13.10;99.90;;;;;;5036122;28;20428;-87
2023/10/05 04:16:16;;;;;;;8.05;3.50;;;13.10;99.90;;;;;;5046069;28;20059;-86
2023/10/05 04:18:42;;;;;;;9.40;3.40;;;13.10;99.90;;;;;;5052553;28;20037;-87
2023/10/05 04:21:07;;;;;;;5.68;3.42;;;13.10;99.90;;;;;;5036110;28;20033;-87
2023/10/05 04:23:33;;;;;;;8.70;3.70;;;13.20;99.90;;;;;;5035929;28;20032;-87
2023/10/05 04:25:59;;;;;;;8.98;3.15;;;13.20;99.90;;;;;;5033865;28;20055;-88
2023/10/05 04:28:34;;;;;;;6.13;3.15;;;13.20;99.90;;;;;;5055524;28;20047;-87
2023/10/05 04:31:00;;;;;;;8.25;3.50;;;13.20;99.90;;;;;;5050608;28;20474;-87
2023/10/05 04:33:29;;;;;;;9.90;2.92;;;13.20;99.90;;;;;;5049752;28;20072;-87
2023/10/05 04:35:55;;;;;;;9.57;3.60;;;13.30;99.90;;;;;;5033289;28;20406;-87
2023/10/05 04:38:25;;;;;;;6.90;3.30;;;13.20;99.90;;;;;;5048955;28;20045;-88
2023/10/05 04:40:51;;;;;;;8.00;2.85;;;13.20;99.90;;;;;;5031454;28;20040;-88
2023/10/05 04:43:17;;;;;;;9.70;3.00;;;13.30;99.90;;;;;;5036726;28;20048;-87
2023/10/05 04:45:42;;;;;;;8.45;3.25;;;13.20;99.90;;;;;;5036091;28;20066;-86
2023/10/05 04:48:12;;;;;;;12.10;3.47;;;13.20;99.90;;;;;;5042761;28;20084;-87
2023/10/05 04:50:41;;;;;;;9.50;3.65;;;13.20;99.90;;;;;;5034273;28;20036;-86
2023/10/05 04:53:10;;;;;;;7.43;3.63;;;13.10;99.90;;;;;;5056638;28;20379;-87
2023/10/05 04:55:46;;;;;;;8.25;3.28;;;13.20;99.90;;;;;;5049896;28;20649;-87
2023/10/05 04:58:21;;;;;;;9.57;3.58;;;13.20;99.90;;;;;;5049605;28;20044;-88
2023/10/05 05:06:00;;;;;;;8.95;3.20;;;13.20;99.90;;;;;;5052782;28;20052;-87
2023/10/05 05:08:26;;;;;;;7.15;2.78;;;13.00;99.90;;;;;;5043909;28;20502;-87
2023/10/05 05:10:52;;;;;;;11.30;3.80;;;13.00;99.90;;;;;;5031347;28;20036;-86
2023/10/05 05:13:20;;;;;;;10.40;3.20;;;13.00;99.90;;;;;;5028831;28;20061;-87
2023/10/05 05:15:46;;;;;;;6.78;3.28;;;12.90;99.90;;;;;;5031888;28;20040;-86
2023/10/05 05:18:15;;;;;;;10.80;3.15;;;12.90;99.90;;;;;;5047572;28;20044;-86
2023/10/05 05:20:47;;;;;;;9.05;2.85;;;12.90;99.90;;;;;;5033447;28;20059;-87
2023/10/05 05:23:14;;;;;;;8.07;3.50;;;12.90;99.90;;;;;;5027381;28;20044;-87
2023/10/05 05:25:42;;;;;;;7.88;3.00;;;12.90;99.90;;;;;;5033939;28;20119;-87
2023/10/05 05:28:09;;;;;;;9.88;3.70;;;12.90;99.90;;;;;;5027316;28;20049;-86
2023/10/05 05:30:40;;;;;;;12.48;3.90;;;13.00;99.90;;;;;;5032112;28;20036;-86
2023/10/05 05:33:10;;;;;;;8.65;3.25;;;13.00;99.90;;;;;;5028699;28;20478;-87
2023/10/05 05:35:37;;;;;;;9.52;3.58;;;13.00;99.90;;;;;;5053492;28;20059;-87
2023/10/05 05:38:02;;;;;;;9.85;2.90;;;13.00;99.90;;;;;;5048728;28;20064;-87
2023/10/05 05:40:29;;;;;;;6.90;3.45;;;13.10;99.90;;;;;;5077710;22;20481;-85
2023/10/05 05:42:56;;;;;;;9.95;3.40;;;13.10;99.90;;;;;;5047900;28;20024;-88
2023/10/05 05:45:22;;;;;;;8.85;3.40;;;13.10;99.90;;;;;;5045217;28;20075;-87
2023/10/05 05:47:48;;;;;;;8.55;3.35;;;13.10;99.90;;;;;;5036338;28;20144;-89
2023/10/05 05:50:17;;;;;;;11.45;3.20;;;13.10;99.90;;;;;;5053221;28;20506;-89
2023/10/05 05:52:47;;;;;;;9.40;3.58;;;13.20;99.90;;;;;;5041335;28;20106;-89
2023/10/05 05:55:21;;;;;;;10.50;3.22;;;13.20;99.90;;;;;;5033236;28;20048;-88
2023/10/05 05:57:47;;;;;;;7.68;3.40;;;13.20;99.90;;;;;;5034888;28;20035;-89
2023/10/05 06:00:17;;;;;;;10.63;3.58;;;13.20;99.90;;;;;;5033756;28;20037;-88
2023/10/05 06:02:43;;;;;;;8.80;3.15;;;13.20;99.90;;;;;;5041060;28;20037;-88
2023/10/05 06:05:10;;;;;;;8.73;3.13;;;13.30;99.90;;;;;;5032620;28;20047;-89
2023/10/05 06:07:43;;;;;;;11.60;3.60;;;13.30;99.90;;;;;;5039933;28;20131;-88
2023/10/05 06:10:14;;;;;;;10.23;3.72;;;13.40;99.90;;;;;;5034129;28;20893;-89
2023/10/05 06:12:41;;;;;;;8.60;3.38;;;13.40;99.90;;;;;;5033967;28;20469;-89
2023/10/05 06:15:09;;;;;;;9.68;3.63;;;13.40;99.90;;;;;;5056661;28;20342;-89
2023/10/05 06:17:36;;;;;;;9.38;3.30;;;13.40;99.90;;;;;;5030186;28;20246;-89
2023/10/05 06:20:07;;;;;;;6.47;3.00;;;13.50;99.90;;;;;;5042654;28;20460;-89
2023/10/05 06:22:33;;;;;;;9.35;3.55;;;13.50;99.90;;;;;;5035285;28;20046;-91
2023/10/05 06:24:59;;;;;;;8.85;3.20;;;13.50;99.90;;;;;;5040311;28;20541;-90
2023/10/05 06:27:25;;;;;;;8.05;3.20;;;13.60;99.90;;;;;;5036556;28;20045;-91
2023/10/05 06:29:50;;;;;;;7.45;2.95;;;13.60;99.90;;;;;;5041561;28;20576;-88
2023/10/05 06:32:17;;;;;;;7.65;3.40;;;13.70;99.90;;;;;;5050855;28;20135;-90
2023/10/05 06:34:43;;;;;;;7.78;3.42;;;13.80;99.90;;;;;;5039587;28;20351;-90
2023/10/05 06:37:10;;;;;;;11.18;3.28;;;13.70;99.90;;;;;;5041368;28;20036;-90
2023/10/05 06:39:41;;;;;;;8.38;3.35;;;13.80;99.90;;;;;;5049264;28;20048;-90
2023/10/05 06:42:07;;;;;;;10.82;3.30;;;13.80;99.90;;;;;;5025623;28;20045;-90
2023/10/05 06:44:33;;;;;;;8.10;3.20;;;13.90;99.90;;;;;;5061355;28;20514;-90
2023/10/05 06:46:59;;;;;;;8.50;3.50;;;13.90;99.90;;;;;;5037493;28;20048;-90
2023/10/05 06:49:27;;;;;;;9.20;3.45;;;13.90;99.90;;;;;;5051373;28;20251;-90
2023/10/05 06:51:52;;;;;;;6.63;2.88;;;13.90;99.90;;;;;;5045827;28;20032;-90
2023/10/05 06:54:18;;;;;;;8.90;3.58;;;14.00;99.90;;;;;;5034579;28;20540;-90
2023/10/05 06:56:49;;;;;;;8.13;3.17;;;14.00;99.90;;;;;;5033928;28;20094;-90
2023/10/05 06:59:15;;;;;;;8.13;3.45;;;14.00;99.90;;;;;;5049175;28;20097;-89
2023/10/05 07:01:43;;;;;;;9.93;3.35;;;14.00;99.90;;;;;;5056455;28;20155;-89
2023/10/05 07:04:09;;;;;;;9.40;3.05;;;14.10;99.90;;;;;;5044524;28;20123;-89
2023/10/05 07:06:35;;;;;;;9.77;4.07;;;14.20;99.90;;;;;;5040141;28;20143;-89
2023/10/05 07:09:02;;;;;;;9.32;3.75;;;14.20;99.90;;;;;;5043881;28;20040;-89
2023/10/05 07:11:28;;;;;;;9.63;2.90;;;14.20;99.90;;;;;;5039320;28;20348;-89
2023/10/05 07:13:53;;;;;;;8.80;3.20;;;14.20;99.90;;;;;;5037277;28;20120;-89
2023/10/05 07:16:19;;;;;;;9.48;3.75;;;14.30;99.90;;;;;;5051365;28;20076;-89
2023/10/05 07:18:45;;;;;;;10.30;3.10;;;14.30;99.90;;;;;;5039322;28;20072;-91
2023/10/05 07:21:11;;;;;;;8.20;2.80;;;14.40;99.90;;;;;;5041111;28;20041;-88
2023/10/05 07:23:38;;;;;;;7.00;3.13;;;14.40;99.90;;;;;;5065774;28;20048;-90
2023/10/05 07:26:05;;;;;;;6.80;3.30;;;14.40;99.90;;;;;;5043309;28;20067;-89
2023/10/05 07:28:35;;;;;;;9.48;3.80;;;14.40;99.90;;;;;;5052088;28;20049;-87
2023/10/05 07:31:02;;;;;;;9.98;3.25;;;14.40;99.90;;;;;;5038653;28;20043;-88
2023/10/05 07:33:29;;;;;;;15.13;4.28;;;14.40;99.90;;;;;;5062822;28;20235;-89
2023/10/05 07:35:55;;;;;;;14.05;3.63;;;14.50;99.90;;;;;;5052041;28;20047;-89
2023/10/05 07:39:23;;;;;;;9.48;3.58;;;14.50;99.90;;;;;;5048299;28;20822;-91
2023/10/05 07:45:30;;;;;;;8.13;3.45;;;14.60;99.90;;;;;;5015298;28;20048;-88
2023/10/05 07:48:06;;;;;;;9.88;3.47;;;14.70;99.90;;;;;;5050528;28;20083;-88
2023/10/05 07:50:37;;;;;;;6.70;3.08;;;14.70;99.90;;;;;;5052092;28;20083;-88
2023/10/05 07:53:20;;;;;;;9.43;3.40;;;14.80;99.90;;;;;;5037688;28;20047;-88
2023/10/05 07:56:24;;;;;;;9.85;3.53;;;14.90;99.90;;;;;;5033491;28;20052;-88
2023/10/05 07:59:16;;;;;;;10.07;3.78;;;14.90;99.90;;;;;;5037029;28;20123;-89
2023/10/05 08:02:11;;;;;;;7.13;3.08;;;15.10;99.90;;;;;;5060270;28;20109;-90
2023/10/05 08:04:41;;;;;;;12.02;3.88;;;15.10;99.90;;;;;;5085177;28;20163;-88
2023/10/05 08:07:11;;;;;;;7.75;3.60;;;15.20;99.90;;;;;;5087895;28;20052;-88
2023/10/05 08:09:36;;;;;;;10.07;3.35;;;15.20;99.90;;;;;;5051575;28;20048;-88
2023/10/05 08:12:02;;;;;;;9.80;3.00;;;15.20;99.90;;;;;;5050701;28;20404;-89
2023/10/05 08:14:30;;;;;;;13.60;3.50;;;15.40;99.90;;;;;;5046440;28;20044;-87
2023/10/05 08:16:56;;;;;;;8.32;3.90;;;15.50;99.90;;;;;;5040202;28;20052;-88
2023/10/05 08:19:25;;;;;;;9.55;3.70;;;15.60;99.90;;;;;;5041912;28;20486;-88
2023/10/05 08:21:54;;;;;;;7.30;3.20;;;15.60;99.90;;;;;;5038957;28;20037;-89
2023/10/05 08:24:26;;;;;;;8.27;3.47;;;15.60;99.90;;;;;;5041601;28;20150;-84
2023/10/05 08:26:53;;;;;;;8.40;3.30;;;15.70;99.90;;;;;;5059504;28;20550;-84
2023/10/05 08:29:22;;;;;;;11.07;3.38;;;15.90;99.90;;;;;;5050645;28;20405;-84
2023/10/05 08:31:51;;;;;;;13.63;3.75;;;16.10;99.90;;;;;;5056752;28;20370;-84
2023/10/05 08:34:20;;;;;;;5.70;2.90;;;16.40;99.90;;;;;;5051685;28;20079;-85
2023/10/05 08:36:53;;;;;;;5.60;3.22;;;16.50;99.90;;;;;;5044124;28;20041;-82
2023/10/05 08:39:25;;;;;;;8.87;3.20;;;16.60;99.90;;;;;;5065208;28;20517;-83
2023/10/05 08:41:55;;;;;;;8.48;2.80;;;16.70;99.90;;;;;;5054699;28;20379;-87
2023/10/05 08:44:27;;;;;;;9.25;3.42;;;16.70;99.90;;;;;;5039406;28;20079;-87
2023/10/05 08:47:10;;;;;;;9.85;3.15;;;16.70;99.90;;;;;;5058346;28;20080;-89
2023/10/05 08:49:37;;;;;;;10.40;3.40;;;16.70;99.90;;;;;;5042804;28;20269;-90
2023/10/05 08:52:13;;;;;;;8.13;3.60;;;16.70;99.90;;;;;;5043860;28;20207;-89
2023/10/05 08:54:47;;;;;;;8.25;3.10;;;16.80;99.90;;;;;;5040614;28;20047;-89
2023/10/05 08:57:17;;;;;;;7.68;2.60;;;16.90;99.90;;;;;;5043731;28;20042;-87
2023/10/05 08:59:46;;;;;;;9.90;3.20;;;16.90;99.90;;;;;;5025700;28;20502;-86
2023/10/05 09:02:18;;;;;;;10.90;3.60;;;16.90;99.90;;;;;;5039353;28;20132;-87
2023/10/05 09:05:00;;;;;;;12.18;3.28;;;16.90;99.90;;;;;;5030789;28;20090;-87
2023/10/05 09:07:35;;;;;;;8.85;3.10;;;16.90;99.90;;;;;;5035360;28;20479;-87
2023/10/05 09:10:05;;;;;;;9.68;3.08;;;16.90;99.90;;;;;;5050775;28;20545;-89
2023/10/05 09:12:34;;;;;;;6.40;2.88;;;17.10;99.90;;;;;;5050208;28;20148;-89
2023/10/05 09:15:21;;;;;;;12.43;3.97;;;17.30;99.90;;;;;;5044590;28;20036;-89
2023/10/05 09:17:56;;;;;;;9.23;3.63;;;17.50;99.90;;;;;;5054520;28;20564;-89
2023/10/05 09:20:24;;;;;;;10.85;3.63;;;17.60;99.90;;;;;;5040863;28;20119;-89
2023/10/05 09:22:51;;;;;;;8.70;3.22;;;17.50;99.90;;;;;;5052448;28;20101;-87
2023/10/05 09:25:26;;;;;;;8.75;3.30;;;17.50;99.90;;;;;;5043651;28;20105;-87
2023/10/05 09:27:53;;;;;;;9.65;3.33;;;17.50;99.90;;;;;;5042838;28;20072;-87
2023/10/05 09:30:21;;;;;;;9.77;3.42;;;17.30;99.90;;;;;;5036454;28;20459;-87
2023/10/05 09:32:48;;;;;;;10.30;3.10;;;17.20;99.90;;;;;;5045817;28;20058;-88
2023/10/05 09:35:33;;;;;;;8.43;3.50;;;17.10;99.90;;;;;;5044048;28;20129;-88
2023/10/05 09:38:00;;;;;;;11.13;3.80;;;17.10;99.90;;;;;;5040453;28;20430;-89
2023/10/05 09:40:28;;;;;;;10.32;3.33;;;17.10;99.90;;;;;;5064202;28;20040;-87
2023/10/05 09:43:00;;;;;;;9.48;3.47;;;17.20;99.90;;;;;;5035447;28;20040;-88
2023/10/05 09:45:43;;;;;;;13.45;4.05;;;17.30;99.90;;;;;;5043014;28;20036;-85
2023/10/05 09:48:09;;;;;;;12.43;3.55;;;17.30;99.90;;;;;;5047344;28;20119;-83
2023/10/05 09:50:43;;;;;;;10.70;3.83;;;17.30;99.90;;;;;;5060026;28;20040;-83
2023/10/05 09:53:11;;;;;;;11.85;3.53;;;17.40;99.90;;;;;;5046635;28;20509;-88
2023/10/05 09:55:40;;;;;;;12.10;3.65;;;17.50;99.90;;;;;;5039558;28;20127;-88
2023/10/05 09:58:12;;;;;;;10.35;3.33;;;17.50;99.90;;;;;;5045917;28;20079;-86
2023/10/05 10:03:05;;;;;;;10.55;3.42;;;17.60;99.90;;;;;;5064853;28;20106;-87
2023/10/05 10:05:36;;;;;;;11.40;3.67;;;17.70;99.90;;;;;;5045974;28;20398;-86
2023/10/05 10:08:12;;;;;;;8.60;3.67;;;17.80;99.90;;;;;;5047684;28;20036;-86
2023/10/05 10:10:43;;;;;;;6.35;3.05;;;17.90;99.90;;;;;;5048521;28;20140;-86
2023/10/05 10:13:14;;;;;;;9.82;3.70;;;17.80;99.90;;;;;;5049884;28;20045;-86
2023/10/05 10:15:45;;;;;;;9.45;3.88;;;17.70;99.90;;;;;;5054269;28;20076;-86
2023/10/05 10:18:14;;;;;;;9.25;3.40;;;17.80;99.90;;;;;;5048095;28;20048;-89
2023/10/05 10:20:49;;;;;;;10.35;3.83;;;17.80;99.90;;;;;;5059453;28;20082;-87
2023/10/05 10:23:53;;;;;;;8.27;3.40;;;17.70;99.90;;;;;;5045203;28;20409;-88
2023/10/05 10:27:11;;;;;;;13.02;4.15;;;17.60;99.90;;;;;;5054766;28;20407;-87
2023/10/05 10:29:55;;;;;;;6.93;3.28;;;17.60;99.90;;;;;;5048962;28;20048;-87
2023/10/05 10:33:09;;;;;;;8.75;3.35;;;17.70;99.90;;;;;;5059783;28;20450;-90
2023/10/05 10:35:54;;;;;;;13.38;3.47;;;17.60;99.90;;;;;;5033687;28;20049;-90
2023/10/05 10:38:27;;;;;;;12.65;3.92;;;17.80;99.90;;;;;;5039027;28;20051;-90
2023/10/05 10:41:11;;;;;;;9.68;3.20;;;18.20;99.90;;;;;;5044569;28;20076;-88
2023/10/05 10:43:52;;;;;;;9.40;3.30;;;18.60;99.90;;;;;;5046408;28;20053;-88
2023/10/05 10:46:42;;;;;;;6.65;2.97;;;19.10;99.90;;;;;;5044550;28;20041;-88
2023/10/05 10:49:23;;;;;;;;;;;;;;;;;;;;;
2023/10/05 10:52:02;;;;;;;8.10;3.22;;;19.40;99.90;;;;;;5054756;28;20119;-88
2023/10/05 10:59:26;;;;;;;9.18;3.05;;;19.70;99.90;;;;;;4983708;28;20049;-88
2023/10/05 11:03:18;;;;;;;6.95;3.17;;;19.60;99.90;;;;;;4973378;28;20065;-90
2023/10/05 11:06:11;;;;;;;10.13;3.42;;;19.40;99.90;;;;;;4980781;28;20492;-91
2023/10/05 11:08:59;;;;;;;10.38;3.60;;;19.40;99.90;;;;;;5050326;28;20430;-89
2023/10/05 11:12:15;;;;;;;11.38;3.17;;;19.40;99.90;;;;;;5069606;28;20146;-89
2023/10/05 11:16:03;;;;;;;7.05;2.80;;;19.70;99.90;;;;;;5027472;28;20049;-89
2023/10/05 11:23:15;;;;;;;8.75;3.25;;;20.10;99.90;;;;;;5031994;28;20087;-89
2023/10/05 11:29:14;;;;;;;9.98;2.83;;;20.40;99.90;;;;;;5062096;28;20296;-88
2023/10/05 11:31:51;;;;;;;8.07;3.10;;;20.40;99.90;;;;;;5041255;28;20044;-89
2023/10/05 11:34:28;;;;;;;8.25;3.28;;;20.30;99.90;;;;;;5061940;28;20028;-89
2023/10/05 11:37:15;;;;;;;10.90;3.15;;;19.90;99.90;;;;;;5046650;28;20040;-90
2023/10/05 11:44:55;;;;;;;8.05;3.15;;;19.40;99.90;;;;;;5098456;28;20104;-32
2023/10/05 11:47:32;;;;;;;12.18;4.18;;;19.70;99.90;;;;;;5099270;28;20032;-31
2023/10/05 11:50:08;;;;;;;12.27;3.70;;;19.90;99.90;;;;;;5087970;28;20040;-31
2023/10/05 11:52:38;;;;;;;9.63;3.10;;;20.20;99.90;;;;;;5089536;28;20070;-31
2023/10/05 11:55:11;;;;;;;10.02;3.58;;;20.30;99.90;;;;;;5082019;28;20071;-32
2023/10/05 11:57:38;;;;;;;8.25;3.20;;;20.50;99.90;;;;;;5084669;28;20059;-31
2023/10/05 12:00:05;;;;;;;8.52;3.00;;;20.50;99.90;;;;;;5082683;28;20052;-31
2023/10/05 12:02:33;;;;;;;8.65;3.13;;;20.40;99.90;;;;;;5087744;28;20048;-31
2023/10/05 12:04:59;;;;;;;9.90;3.03;;;20.10;99.90;;;;;;5085880;28;20071;-30
2023/10/05 12:07:25;;;;;;;8.95;3.03;;;20.00;99.90;;;;;;5078981;28;20582;-30
2023/10/05 12:09:51;;;;;;;5.47;2.50;;;19.80;99.90;;;;;;5087734;28;20085;-31
2023/10/05 12:12:18;;;;;;;6.03;2.35;;;20.20;99.90;;;;;;5082957;28;20383;-31
2023/10/05 12:14:44;;;;;;;6.97;2.88;;;20.50;99.90;;;;;;5086913;28;20047;-31
2023/10/05 12:17:10;;;;;;;7.53;2.95;;;20.50;99.90;;;;;;5086553;28;20043;-31
2023/10/05 12:19:37;;;;;;;5.80;2.53;;;20.50;99.90;;;;;;5084522;28;20497;-36
2023/10/05 12:22:08;;;;;;;6.32;2.60;;;20.50;99.90;;;;;;5086663;28;20048;-30
2023/10/05 12:24:34;;;;;;;9.10;3.03;;;20.50;99.90;;;;;;5084308;28;20080;-30
2023/10/05 12:27:13;;;;;;;6.10;2.60;;;20.60;99.90;;;;;;5089419;28;20670;-30
2023/10/05 12:29:41;;;;;;;6.50;2.75;;;20.80;99.90;;;;;;5069097;28;20047;-32
2023/10/05 12:32:13;;;;;;;7.72;2.85;;;21.50;99.90;;;;;;5086423;28;20104;-32
2023/10/05 12:34:41;;;;;;;7.18;2.83;;;22.00;99.90;;;;;;5068718;28;20525;-31
2023/10/05 12:37:08;;;;;;;7.25;3.08;;;22.60;99.90;;;;;;5092132;28;20410;-31
2023/10/05 12:39:33;;;;;;;6.97;2.95;;;22.40;99.90;;;;;;5092580;28;20040;-32
2023/10/05 12:42:00;;;;;;;5.50;2.80;;;21.90;99.90;;;;;;5090364;28;20055;-30
2023/10/05 12:44:27;;;;;;;6.53;2.72;;;21.40;99.90;;;;;;5083910;28;20044;-32
2023/10/05 12:46:53;;;;;;;7.03;2.97;;;20.90;99.90;;;;;;5089959;28;20043;-32
2023/10/05 12:49:20;;;;;;;6.35;2.90;;;20.60;99.90;;;;;;5088439;28;20065;-30
2023/10/05 12:51:50;;;;;;;8.45;2.85;;;20.60;99.90;;;;;;5092031;28;20083;-31
2023/10/05 12:54:19;;;;;;;5.93;2.30;;;20.60;99.90;;;;;;5092771;28;20035;-31
2023/10/05 12:56:51;;;;;;;6.95;2.83;;;20.80;99.90;;;;;;5088269;28;20036;-30
2023/10/05 12:59:18;;;;;;;12.00;3.55;;;20.80;99.90;;;;;;5087279;28;20043;-31
2023/10/05 13:01:44;;;;;;;7.30;2.95;;;20.60;99.90;;;;;;5085388;28;20044;-31
2023/10/05 13:04:11;;;;;;;8.00;2.80;;;20.40;99.90;;;;;;5096362;28;20051;-30
2023/10/05 13:06:38;;;;;;;5.68;2.60;;;20.50;99.90;;;;;;5096726;28;20048;-31
2023/10/05 13:09:11;;;;;;;5.78;2.67;;;21.10;99.90;;;;;;5089715;28;20710;-31
2023/10/05 13:11:44;;;;;;;9.05;3.53;;;21.60;99.90;;;;;;5087158;28;20048;-33
2023/10/05 13:14:14;;;;;;;8.30;3.38;;;22.40;99.90;;;;;;5065781;28;20575;-30
2023/10/05 13:16:44;;;;;;;10.50;3.42;;;23.00;99.90;;;;;;5090503;28;20051;-31
2023/10/05 13:19:12;;;;;;;9.80;3.28;;;23.40;99.90;;;;;;5080229;28;20078;-31
2023/10/05 13:21:42;;;;;;;5.50;2.50;;;23.50;99.90;;;;;;5089044;28;20075;-33
2023/10/05 13:24:11;;;;;;;10.25;3.28;;;23.70;99.90;;;;;;5096206;28;20046;-32
2023/10/05 13:26:44;;;;;;;10.82;3.53;;;23.90;99.90;;;;;;5080539;28;20036;-31
2023/10/05 13:29:11;;;;;;;6.97;2.20;;;23.60;99.90;;;;;;5067149;28;20381;-30
2023/10/05 13:31:38;;;;;;;8.90;3.20;;;23.60;99.90;;;;;;5072014;28;20048;-29
2023/10/05 13:34:09;;;;;;;7.95;3.08;;;23.70;99.90;;;;;;5093202;28;20069;-31
2023/10/05 13:36:36;;;;;;;7.03;3.15;;;23.90;99.90;;;;;;5088848;28;20123;-30
2023/10/05 13:39:10;;;;;;;5.95;2.40;;;24.40;99.90;;;;;;5082298;28;20138;-30
2023/10/05 13:41:38;;;;;;;8.68;3.05;;;24.90;99.90;;;;;;5088135;28;20485;-31
2023/10/05 13:44:04;;;;;;;6.68;2.65;;;25.00;99.90;;;;;;5083450;28;20054;-30
2023/10/05 13:46:35;;;;;;;6.93;2.70;;;25.00;99.90;;;;;;5087447;28;20506;-33
2023/10/05 13:49:03;;;;;;;13.23;3.03;;;24.80;99.90;;;;;;5083544;28;20044;-31
2023/10/05 13:51:34;;;;;;;7.43;2.38;;;25.00;99.90;;;;;;5088310;28;20387;-30
2023/10/05 13:54:06;;;;;;;8.50;2.75;;;24.70;99.90;;;;;;5084158;28;20121;-30